Time;durP1;ratioP1;P1;durP2;ratioP2;P2;SDS_P1;SDS_P2;PMS_P1;PMS_P2;Temp;Humidity;BMP_temperature;BMP_pressure;BME280_temperature;BME280_humidity;BME280_pressure;Samples;Min_cycle;Max_cycle;Signal;HPM_P1;HPM_P2
2021/05/02 00:04:43;;;;;;;1.95;1.40;;;17.60;58.50;;;;;;10476960;28;20450;-52
2021/05/02 00:09:44;;;;;;;2.60;1.48;;;17.60;58.50;;;;;;10467446;28;20103;-52
2021/05/02 00:14:45;;;;;;;2.55;1.90;;;17.60;58.40;;;;;;10494563;28;20029;-55
2021/05/02 00:19:46;;;;;;;1.98;1.42;;;17.70;58.40;;;;;;10494064;28;20040;-54
2021/05/02 00:24:48;;;;;;;3.20;2.00;;;17.60;58.30;;;;;;10507786;28;20457;-53
2021/05/02 00:29:48;;;;;;;1.90;1.38;;;17.70;58.40;;;;;;10484856;28;20657;-52
2021/05/02 00:34:52;;;;;;;2.33;1.52;;;17.70;58.30;;;;;;10488441;28;20036;-53
2021/05/02 00:39:53;;;;;;;2.72;1.40;;;17.70;58.90;;;;;;10473967;28;20036;-54
2021/05/02 00:45:26;;;;;;;2.75;1.58;;;17.60;58.20;;;;;;10474895;28;20102;-53
2021/05/02 00:50:38;;;;;;;3.33;1.70;;;17.70;58.20;;;;;;10492643;28;20040;-53
2021/05/02 00:55:56;;;;;;;2.17;1.63;;;17.70;58.20;;;;;;10492799;28;20034;-51
2021/05/02 01:01:00;;;;;;;2.25;1.35;;;17.60;58.10;;;;;;10492431;28;20043;-51
2021/05/02 01:06:10;;;;;;;3.10;1.50;;;17.70;58.20;;;;;;10492124;28;20507;-52
2021/05/02 01:11:15;;;;;;;2.40;1.65;;;17.70;58.10;;;;;;10469562;28;20032;-53
2021/05/02 01:16:17;;;;;;;2.00;1.27;;;17.70;58.10;;;;;;10483910;28;20107;-53
2021/05/02 01:21:18;;;;;;;1.88;1.48;;;17.60;58.10;;;;;;10490269;28;20042;-50
2021/05/02 01:26:19;;;;;;;2.08;1.48;;;17.60;58.00;;;;;;10473602;28;20106;-52
2021/05/02 01:31:20;;;;;;;2.20;1.60;;;17.70;58.00;;;;;;10473140;28;20032;-54
2021/05/02 01:36:21;;;;;;;2.53;1.83;;;17.70;58.00;;;;;;10491306;28;20028;-53
2021/05/02 01:41:25;;;;;;;2.65;1.60;;;17.70;57.90;;;;;;10473175;28;20111;-52
2021/05/02 01:46:36;;;;;;;1.98;1.23;;;17.60;57.90;;;;;;10490599;28;20080;-54
2021/05/02 01:51:38;;;;;;;1.52;1.33;;;17.70;57.90;;;;;;10490931;28;20032;-52
2021/05/02 01:56:40;;;;;;;1.50;1.30;;;17.70;57.90;;;;;;10472770;28;20035;-53
2021/05/02 02:01:40;;;;;;;1.75;1.40;;;17.60;57.80;;;;;;10490600;28;20040;-52
2021/05/02 02:06:41;;;;;;;2.70;1.30;;;17.60;57.80;;;;;;10490185;28;20505;-52
2021/05/02 02:11:42;;;;;;;2.17;1.75;;;17.60;57.80;;;;;;10490523;28;20037;-51
2021/05/02 02:16:45;;;;;;;1.75;1.45;;;17.60;57.70;;;;;;10490332;28;20081;-54
2021/05/02 02:21:51;;;;;;;1.95;1.40;;;17.70;57.70;;;;;;10490042;28;20025;-53
2021/05/02 02:26:57;;;;;;;2.58;1.55;;;17.70;57.70;;;;;;10490060;28;20033;-52
2021/05/02 02:32:01;;;;;;;2.55;1.52;;;17.70;58.20;;;;;;10472183;28;20119;-54
2021/05/02 02:37:01;;;;;;;2.50;1.35;;;17.70;57.70;;;;;;10472040;28;20032;-50
2021/05/02 02:42:07;;;;;;;1.23;1.05;;;17.70;57.60;;;;;;10472049;28;20767;-51
2021/05/02 02:47:13;;;;;;;2.03;1.42;;;17.70;57.60;;;;;;10472155;28;21095;-52
2021/05/02 02:52:21;;;;;;;2.15;1.50;;;17.70;57.60;;;;;;10471428;28;20024;-50
2021/05/02 02:57:26;;;;;;;2.42;1.45;;;17.70;57.60;;;;;;10489611;28;20082;-49
2021/05/02 03:02:29;;;;;;;1.60;1.10;;;17.70;57.50;;;;;;10472038;28;20115;-53
2021/05/02 03:07:33;;;;;;;2.60;1.30;;;17.70;57.50;;;;;;10471110;28;20040;-55
2021/05/02 03:12:34;;;;;;;2.03;1.30;;;17.70;57.60;;;;;;10484390;28;20031;-52
2021/05/02 03:17:37;;;;;;;1.98;1.40;;;17.70;57.50;;;;;;10493285;28;20033;-52
2021/05/02 03:23:03;;;;;;;1.60;1.40;;;17.70;57.50;;;;;;10497075;28;20519;-52
2021/05/02 03:28:13;;;;;;;1.67;1.15;;;17.70;57.50;;;;;;10494885;28;20043;-50
2021/05/02 03:33:15;;;;;;;1.83;1.00;;;17.70;57.40;;;;;;10478679;28;20040;-50
2021/05/02 03:38:22;;;;;;;2.60;1.25;;;17.70;57.40;;;;;;10495751;28;20037;-51
2021/05/02 03:43:23;;;;;;;1.83;1.20;;;17.60;57.40;;;;;;10494192;28;20032;-51
2021/05/02 03:48:25;;;;;;;1.92;1.00;;;17.70;57.40;;;;;;10495067;28;20056;-53
2021/05/02 03:53:26;;;;;;;2.28;1.40;;;17.60;57.40;;;;;;10495280;28;20481;-53
2021/05/02 03:58:27;;;;;;;2.00;1.17;;;17.60;57.40;;;;;;10494640;28;20032;-54
2021/05/02 04:03:27;;;;;;;1.23;0.95;;;17.70;57.40;;;;;;10492640;28;20029;-50
2021/05/02 04:08:29;;;;;;;1.80;1.00;;;17.70;57.20;;;;;;10493638;28;20039;-54
2021/05/02 04:13:29;;;;;;;1.70;0.95;;;17.70;57.20;;;;;;10494427;28;20040;-53
2021/05/02 04:18:31;;;;;;;0.93;0.80;;;17.70;57.20;;;;;;10494040;28;20029;-51
2021/05/02 04:23:34;;;;;;;2.00;1.38;;;17.70;57.20;;;;;;10469131;28;20032;-51
2021/05/02 04:28:34;;;;;;;1.83;1.13;;;17.70;57.20;;;;;;10491048;28;20029;-56
2021/05/02 04:33:35;;;;;;;2.05;0.80;;;17.60;57.20;;;;;;10473041;28;20025;-51
2021/05/02 04:38:37;;;;;;;1.67;1.00;;;17.60;57.20;;;;;;10492742;28;20034;-53
2021/05/02 04:43:38;;;;;;;2.33;1.33;;;17.60;57.10;;;;;;10492486;28;20622;-52
2021/05/02 04:48:41;;;;;;;1.60;1.13;;;17.60;57.10;;;;;;10492542;28;20136;-54
2021/05/02 04:53:42;;;;;;;1.65;1.13;;;17.70;57.20;;;;;;10474862;28;20028;-52
2021/05/02 04:58:43;;;;;;;1.30;1.00;;;17.60;57.20;;;;;;10506061;28;20032;-54
2021/05/02 05:03:45;;;;;;;1.40;0.98;;;17.70;57.20;;;;;;10492366;28;20032;-54
2021/05/02 05:08:46;;;;;;;11.70;2.35;;;17.70;57.20;;;;;;10491666;28;20044;-49
2021/05/02 05:13:47;;;;;;;4.80;1.90;;;17.60;58.50;;;;;;10491775;28;20396;-47
2021/05/02 05:18:48;;;;;;;7.45;1.70;;;17.70;60.30;;;;;;10491799;28;20036;-50
2021/05/02 05:23:49;;;;;;;7.10;1.73;;;17.70;60.70;;;;;;10489737;28;20055;-50
2021/05/02 05:28:50;;;;;;;17.73;2.78;;;17.70;60.40;;;;;;10473065;28;20032;-53
2021/05/02 05:33:50;;;;;;;8.25;2.45;;;17.70;60.00;;;;;;10473264;28;20550;-49
2021/05/02 05:38:51;;;;;;;16.58;2.38;;;17.70;60.00;;;;;;10492399;28;20097;-50
2021/05/02 05:43:52;;;;;;;5.68;2.33;;;17.70;60.60;;;;;;10501569;28;20135;-47
2021/05/02 05:48:52;;;;;;;9.75;2.67;;;17.80;60.10;;;;;;10488158;28;20135;-50
2021/05/02 05:53:53;;;;;;;11.48;2.55;;;17.70;60.00;;;;;;10488401;28;20115;-50
2021/05/02 05:58:54;;;;;;;13.55;2.83;;;17.70;60.20;;;;;;10489124;28;20043;-51
2021/05/02 06:03:56;;;;;;;10.90;2.50;;;17.70;60.20;;;;;;10490594;28;20440;-51
2021/05/02 06:08:57;;;;;;;8.98;2.22;;;17.60;60.80;;;;;;10490089;28;20048;-50
2021/05/02 06:13:58;;;;;;;11.57;2.45;;;17.60;60.30;;;;;;10495098;28;20109;-58
2021/05/02 06:18:59;;;;;;;8.73;2.67;;;17.60;60.50;;;;;;10496484;28;20116;-60
2021/05/02 06:24:00;;;;;;;11.18;3.03;;;17.50;60.50;;;;;;10496490;28;20040;-58
2021/05/02 06:29:01;;;;;;;10.00;2.38;;;17.50;60.40;;;;;;10477941;28;20073;-59
2021/05/02 06:34:02;;;;;;;10.25;2.20;;;17.50;60.50;;;;;;10495163;28;20032;-58
2021/05/02 06:39:03;;;;;;;18.98;3.28;;;17.50;60.40;;;;;;10470159;28;20044;-56
2021/05/02 06:44:04;;;;;;;12.93;2.40;;;17.50;60.40;;;;;;10475511;28;20033;-59
2021/05/02 06:49:07;;;;;;;21.83;4.88;;;17.50;60.40;;;;;;10471715;28;20501;-59
2021/05/02 06:54:09;;;;;;;27.60;3.80;;;17.50;61.10;;;;;;10503373;28;20024;-59
2021/05/02 06:59:09;;;;;;;16.67;3.17;;;17.40;61.80;;;;;;10503813;28;20032;-57
2021/05/02 07:04:10;;;;;;;11.07;3.17;;;17.40;61.80;;;;;;10485578;28;20115;-58
2021/05/02 07:09:11;;;;;;;13.82;3.10;;;17.40;60.80;;;;;;10503229;28;20029;-59
2021/05/02 07:14:12;;;;;;;18.35;3.58;;;17.40;60.90;;;;;;10485741;28;20119;-59
2021/05/02 07:19:13;;;;;;;22.88;3.63;;;17.40;60.80;;;;;;10503020;28;20149;-59
2021/05/02 07:24:15;;;;;;;20.60;3.28;;;17.40;60.80;;;;;;10502930;28;20166;-58
2021/05/02 07:29:16;;;;;;;16.88;3.17;;;17.40;60.70;;;;;;10484704;28;20033;-60
2021/05/02 07:34:17;;;;;;;11.93;3.03;;;17.40;60.70;;;;;;10502379;28;20108;-59
2021/05/02 07:39:18;;;;;;;13.95;3.20;;;17.40;60.90;;;;;;10502619;28;20115;-58
2021/05/02 07:44:20;;;;;;;13.80;2.83;;;17.50;61.10;;;;;;10502364;28;20052;-58
2021/05/02 07:49:20;;;;;;;30.15;4.97;;;17.40;60.90;;;;;;10483901;28;20045;-60
2021/05/02 07:54:21;;;;;;;21.42;3.28;;;17.40;62.20;;;;;;10502101;28;20036;-61
2021/05/02 07:59:22;;;;;;;20.17;4.68;;;17.50;62.20;;;;;;10483816;28;20032;-62
2021/05/02 08:04:23;;;;;;;17.15;3.25;;;17.80;61.20;;;;;;10487812;28;20055;-57
2021/05/02 08:09:23;;;;;;;21.50;4.47;;;17.70;62.00;;;;;;10501398;28;20059;-57
2021/05/02 08:14:24;;;;;;;25.58;4.60;;;17.60;63.10;;;;;;10501179;28;20123;-52
2021/05/02 08:19:27;;;;;;;33.75;4.30;;;17.50;63.90;;;;;;10501097;28;20122;-53
2021/05/02 08:24:27;;;;;;;39.78;5.70;;;17.50;65.20;;;;;;10499717;28;20064;-54
2021/05/02 08:29:28;;;;;;;61.30;6.25;;;17.50;64.80;;;;;;10499007;28;20045;-54
2021/05/02 08:34:29;;;;;;;35.42;4.75;;;17.50;65.90;;;;;;10499794;28;20028;-56
2021/05/02 08:39:30;;;;;;;39.10;6.10;;;17.50;66.30;;;;;;10495830;28;20028;-57
2021/05/02 08:44:30;;;;;;;38.85;4.68;;;17.50;66.00;;;;;;10499810;28;20599;-51
2021/05/02 08:49:32;;;;;;;27.77;5.63;;;17.50;65.70;;;;;;10513092;28;20036;-53
2021/05/02 08:54:32;;;;;;;19.65;4.07;;;17.40;64.70;;;;;;10499497;28;20029;-56
2021/05/02 08:59:33;;;;;;;25.27;4.63;;;17.40;64.20;;;;;;10498028;28;20602;-55
2021/05/02 09:04:40;;;;;;;18.75;3.85;;;17.40;63.90;;;;;;10485579;28;20036;-55
2021/05/02 09:09:44;;;;;;;15.98;4.53;;;17.40;63.50;;;;;;10471071;28;20041;-55
2021/05/02 09:14:45;;;;;;;18.70;3.58;;;17.40;63.30;;;;;;10512298;28;20143;-55
2021/05/02 09:19:51;;;;;;;14.77;3.35;;;17.40;63.10;;;;;;10512232;28;20077;-54
2021/05/02 09:25:05;;;;;;;18.55;3.47;;;17.40;63.20;;;;;;10498091;28;20097;-57
2021/05/02 09:30:20;;;;;;;16.50;4.28;;;17.40;62.60;;;;;;10480454;28;20513;-49
2021/05/02 09:35:27;;;;;;;13.50;3.40;;;17.40;62.00;;;;;;10479984;28;20033;-60
2021/05/02 09:40:27;;;;;;;20.58;3.97;;;17.40;62.30;;;;;;10497659;28;20540;-63
2021/05/02 09:45:28;;;;;;;16.58;3.58;;;17.40;62.80;;;;;;10511037;28;20058;-62
2021/05/02 09:50:33;;;;;;;24.48;4.22;;;17.50;63.30;;;;;;10497321;28;20068;-62
2021/05/02 09:55:39;;;;;;;16.02;3.60;;;17.40;63.60;;;;;;10480068;28;20045;-61
2021/05/02 10:00:44;;;;;;;21.25;4.60;;;17.50;64.10;;;;;;10479478;28;20024;-62
2021/05/02 10:05:59;;;;;;;20.30;3.30;;;17.40;64.00;;;;;;10497127;28;20032;-65
2021/05/02 10:11:06;;;;;;;13.98;2.88;;;17.50;64.40;;;;;;10497460;28;20032;-66
2021/05/02 10:16:09;;;;;;;13.85;3.50;;;17.40;63.10;;;;;;10497099;28;20020;-67
2021/05/02 10:21:10;;;;;;;16.35;3.60;;;17.30;63.10;;;;;;10479550;28;20135;-62
2021/05/02 10:26:11;;;;;;;14.55;3.15;;;17.30;62.80;;;;;;10503708;28;20233;-63
2021/05/02 10:31:14;;;;;;;16.27;3.38;;;17.30;63.00;;;;;;10505122;28;20542;-63
2021/05/02 10:36:24;;;;;;;17.77;3.25;;;17.30;63.30;;;;;;10475311;28;20028;-62
2021/05/02 10:41:32;;;;;;;15.43;2.80;;;17.30;63.20;;;;;;10504171;28;20032;-64
2021/05/02 10:46:42;;;;;;;16.27;3.42;;;17.30;63.20;;;;;;10504178;28;20053;-61
2021/05/02 10:51:42;;;;;;;26.50;4.88;;;17.40;63.60;;;;;;10504346;28;20433;-59
2021/05/02 10:56:49;;;;;;;22.67;3.90;;;17.40;64.20;;;;;;10504182;28;20033;-59
2021/05/02 11:01:50;;;;;;;16.38;3.60;;;17.40;64.40;;;;;;10503876;28;20052;-60
2021/05/02 11:06:53;;;;;;;16.33;3.28;;;17.40;64.90;;;;;;10503538;28;20066;-61
2021/05/02 11:11:55;;;;;;;13.23;3.38;;;17.50;65.20;;;;;;10503788;28;20473;-63
2021/05/02 11:16:59;;;;;;;18.23;3.78;;;17.50;65.30;;;;;;10503319;28;20477;-61
2021/05/02 11:22:04;;;;;;;19.27;3.60;;;17.50;65.20;;;;;;10503325;28;20080;-61
2021/05/02 11:32:31;;;;;;;18.45;4.00;;;17.50;64.80;;;;;;10486299;28;20086;-61
2021/05/02 11:38:03;;;;;;;21.95;4.05;;;17.50;64.70;;;;;;10501706;28;20062;-61
2021/05/02 11:43:08;;;;;;;23.08;3.70;;;17.50;64.50;;;;;;10485794;28;20078;-62
2021/05/02 11:48:23;;;;;;;23.15;3.40;;;17.50;64.70;;;;;;10501794;28;20053;-62
2021/05/02 11:53:48;;;;;;;34.17;4.70;;;17.40;65.10;;;;;;10502046;28;20035;-58
2021/05/02 11:58:52;;;;;;;25.25;3.78;;;17.40;65.30;;;;;;10501773;28;20043;-58
2021/05/02 12:04:04;;;;;;;20.55;4.00;;;17.40;65.60;;;;;;10502042;28;20060;-58
2021/05/02 12:09:20;;;;;;;32.92;5.53;;;17.40;65.60;;;;;;10484520;28;20074;-58
2021/05/02 12:14:28;;;;;;;22.80;3.75;;;17.40;65.50;;;;;;10483330;28;20028;-59
2021/05/02 12:19:31;;;;;;;23.98;4.35;;;17.40;65.40;;;;;;10474973;28;20032;-60
2021/05/02 12:24:33;;;;;;;22.10;4.38;;;17.40;65.30;;;;;;10514354;28;20031;-60
2021/05/02 12:29:39;;;;;;;24.10;3.35;;;17.40;65.20;;;;;;10500672;28;20024;-58
2021/05/02 12:34:52;;;;;;;35.30;4.57;;;17.40;64.80;;;;;;10482944;28;20027;-58
2021/05/02 12:39:58;;;;;;;22.63;3.97;;;17.40;65.30;;;;;;10500532;28;20036;-58
2021/05/02 12:45:00;;;;;;;17.65;3.45;;;17.40;65.40;;;;;;10499119;28;20039;-57
2021/05/02 12:50:06;;;;;;;16.27;3.45;;;17.40;65.70;;;;;;10499419;28;20036;-58
2021/05/02 12:55:27;;;;;;;16.73;3.03;;;17.40;65.80;;;;;;10499699;28;20099;-58
2021/05/02 13:00:40;;;;;;;23.88;5.20;;;17.40;65.80;;;;;;10499702;28;20035;-59
2021/05/02 13:05:41;;;;;;;17.20;3.10;;;17.40;65.60;;;;;;10481211;28;20484;-59
2021/05/02 13:10:41;;;;;;;12.70;3.33;;;17.40;65.80;;;;;;10498759;28;20033;-62
2021/05/02 13:15:49;;;;;;;16.40;2.95;;;17.40;65.90;;;;;;10480566;28;20388;-59
2021/05/02 13:21:02;;;;;;;16.55;3.80;;;17.40;65.50;;;;;;10498949;28;20450;-59
2021/05/02 13:26:16;;;;;;;33.80;4.82;;;17.40;65.50;;;;;;10512104;28;20376;-59
2021/05/02 13:31:17;;;;;;;31.67;4.35;;;17.40;65.30;;;;;;10503275;28;20039;-58
2021/05/02 13:36:18;;;;;;;19.45;6.00;;;17.40;65.60;;;;;;10506456;28;20035;-59
2021/05/02 13:41:18;;;;;;;25.15;4.85;;;17.40;65.10;;;;;;10479540;28;20039;-63
2021/05/02 13:46:19;;;;;;;39.97;6.20;;;17.40;64.70;;;;;;10475711;28;20075;-58
2021/05/02 13:51:21;;;;;;;44.55;6.50;;;17.40;64.70;;;;;;10492395;28;20135;-57
2021/05/02 13:56:23;;;;;;;34.55;5.75;;;17.40;64.50;;;;;;10495470;28;20528;-56
2021/05/02 14:01:24;;;;;;;31.48;6.43;;;17.40;65.10;;;;;;10497584;28;20039;-56
2021/05/02 14:06:26;;;;;;;19.00;5.47;;;17.40;65.50;;;;;;10478451;28;20028;-58
2021/05/02 14:11:27;;;;;;;26.88;6.03;;;17.50;65.80;;;;;;10496106;28;20035;-58
2021/05/02 14:16:28;;;;;;;22.92;5.22;;;17.50;65.40;;;;;;10478148;28;20759;-57
2021/05/02 14:21:28;;;;;;;27.98;5.03;;;17.40;65.20;;;;;;10496078;28;20036;-57
2021/05/02 14:26:29;;;;;;;19.98;4.88;;;17.30;64.70;;;;;;10496247;28;20162;-57
2021/05/02 14:31:30;;;;;;;16.05;4.03;;;17.30;64.10;;;;;;10495842;28;20063;-57
2021/05/02 14:36:31;;;;;;;23.05;5.95;;;17.20;63.70;;;;;;10498982;28;20423;-58
2021/05/02 14:41:31;;;;;;;22.10;4.60;;;17.20;63.70;;;;;;10505364;28;20073;-57
2021/05/02 14:46:33;;;;;;;16.67;4.18;;;17.30;63.70;;;;;;10498107;28;20060;-57
2021/05/02 14:51:35;;;;;;;19.25;4.15;;;17.20;63.50;;;;;;10487539;28;20058;-58
2021/05/02 14:56:35;;;;;;;10.80;3.28;;;17.20;63.30;;;;;;10489871;28;20054;-58
2021/05/02 15:01:36;;;;;;;8.85;2.53;;;17.20;63.20;;;;;;10506701;28;20043;-58
2021/05/02 15:06:37;;;;;;;9.50;3.38;;;17.20;63.20;;;;;;10508401;28;20025;-58
2021/05/02 15:11:39;;;;;;;16.42;4.75;;;17.10;63.20;;;;;;10514812;28;20029;-58
2021/05/02 15:16:39;;;;;;;8.73;2.72;;;17.10;63.10;;;;;;10516876;28;20024;-58
2021/05/02 15:21:40;;;;;;;10.95;3.35;;;17.20;63.10;;;;;;10516747;28;20094;-57
2021/05/02 15:26:41;;;;;;;9.55;3.38;;;17.10;63.00;;;;;;10502734;28;20103;-57
2021/05/02 15:31:42;;;;;;;8.32;3.40;;;17.10;62.90;;;;;;10502592;28;20028;-57
2021/05/02 15:36:43;;;;;;;8.98;2.03;;;17.20;62.70;;;;;;10502849;28;20028;-57
2021/05/02 15:41:43;;;;;;;9.25;3.33;;;17.20;62.70;;;;;;10515778;28;20114;-57
2021/05/02 15:46:44;;;;;;;8.10;2.25;;;17.20;62.50;;;;;;10502090;28;20049;-57
2021/05/02 15:51:45;;;;;;;6.95;2.00;;;17.30;62.30;;;;;;10502179;28;20033;-57
2021/05/02 15:56:46;;;;;;;6.35;2.10;;;17.30;62.20;;;;;;10515332;28;20541;-57
2021/05/02 16:01:47;;;;;;;7.53;2.80;;;17.30;62.10;;;;;;10483287;28;20024;-60
2021/05/02 16:06:48;;;;;;;12.85;2.88;;;17.30;62.00;;;;;;10462511;28;20039;-61
2021/05/02 16:11:49;;;;;;;8.18;2.60;;;17.30;62.10;;;;;;10480026;28;20092;-59
2021/05/02 16:16:49;;;;;;;14.80;2.55;;;17.30;61.40;;;;;;10497295;28;20016;-62
2021/05/02 16:21:51;;;;;;;10.82;2.83;;;17.50;63.20;;;;;;10466498;28;20384;-62
2021/05/02 16:26:52;;;;;;;16.65;3.97;;;17.60;62.30;;;;;;10493749;28;20381;-57
2021/05/02 16:31:53;;;;;;;12.40;3.00;;;17.60;62.20;;;;;;10499447;28;20043;-56
2021/05/02 16:36:53;;;;;;;14.00;3.63;;;17.70;64.70;;;;;;10470419;28;20070;-56
2021/05/02 16:41:54;;;;;;;8.75;2.97;;;17.70;64.40;;;;;;10499289;28;20108;-56
2021/05/02 16:46:55;;;;;;;8.85;3.00;;;17.70;64.10;;;;;;10473129;28;20454;-57
2021/05/02 16:51:56;;;;;;;20.35;2.47;;;17.80;64.10;;;;;;10499689;28;20107;-58
2021/05/02 16:56:56;;;;;;;23.02;3.50;;;17.70;63.50;;;;;;10499418;28;20037;-59
2021/05/02 17:02:00;;;;;;;17.15;2.83;;;17.70;63.40;;;;;;10499017;28;20512;-59
2021/05/02 17:07:01;;;;;;;17.70;2.80;;;17.70;62.70;;;;;;10512538;28;20047;-58
2021/05/02 17:12:01;;;;;;;12.63;1.98;;;17.70;62.70;;;;;;10480325;28;20062;-58
2021/05/02 17:17:04;;;;;;;10.35;2.53;;;17.70;62.70;;;;;;10497783;28;20025;-58
2021/05/02 17:22:05;;;;;;;9.52;2.22;;;17.60;62.80;;;;;;10479276;28;20029;-59
2021/05/02 17:27:07;;;;;;;12.50;2.83;;;17.60;63.20;;;;;;10498261;28;20033;-58
2021/05/02 17:32:08;;;;;;;8.63;2.22;;;17.60;62.60;;;;;;10480283;28;20025;-58
2021/05/02 17:37:11;;;;;;;9.57;1.80;;;17.60;62.70;;;;;;10511253;28;20017;-59
2021/05/02 17:42:11;;;;;;;6.30;1.52;;;17.60;62.50;;;;;;10497743;28;20036;-59
2021/05/02 17:47:12;;;;;;;8.82;2.10;;;17.60;62.40;;;;;;10496671;28;20127;-58
2021/05/02 17:52:13;;;;;;;4.82;1.92;;;17.50;62.30;;;;;;10496612;28;20032;-62
2021/05/02 17:57:14;;;;;;;8.65;2.15;;;17.50;62.40;;;;;;10497147;28;20025;-59
2021/05/02 18:02:18;;;;;;;12.43;2.70;;;17.40;61.80;;;;;;10496516;28;20048;-62
2021/05/02 18:07:19;;;;;;;7.68;1.52;;;17.40;61.40;;;;;;10479822;28;20443;-59
2021/05/02 18:12:20;;;;;;;8.68;2.10;;;17.40;61.20;;;;;;10495883;28;20028;-59
2021/05/02 18:17:20;;;;;;;12.38;2.08;;;17.40;60.70;;;;;;10507700;28;20114;-59
2021/05/02 18:22:24;;;;;;;6.30;2.10;;;17.40;60.60;;;;;;10499352;28;20032;-59
2021/05/02 18:27:25;;;;;;;3.90;1.55;;;17.40;60.50;;;;;;10509932;28;20059;-59
2021/05/02 18:32:26;;;;;;;6.88;2.03;;;17.40;60.10;;;;;;10481285;28;20028;-59
2021/05/02 18:37:27;;;;;;;4.30;1.38;;;17.40;60.00;;;;;;10496460;28;20078;-59
2021/05/02 18:42:28;;;;;;;9.85;2.25;;;17.40;60.10;;;;;;10478002;28;20025;-59
2021/05/02 18:47:28;;;;;;;9.77;1.70;;;17.40;60.00;;;;;;10503020;28;20049;-60
2021/05/02 18:52:29;;;;;;;7.82;1.95;;;17.50;60.60;;;;;;10503269;28;20135;-58
2021/05/02 18:57:30;;;;;;;12.48;1.83;;;17.50;60.10;;;;;;10470916;28;20614;-59
2021/05/02 19:02:31;;;;;;;8.00;1.40;;;17.50;60.20;;;;;;10474797;28;20124;-58
2021/05/02 19:07:32;;;;;;;6.00;1.23;;;17.50;60.40;;;;;;10504222;28;20036;-60
2021/05/02 19:12:33;;;;;;;9.55;1.88;;;17.50;60.50;;;;;;10484316;28;20396;-59
2021/05/02 19:17:34;;;;;;;5.97;1.98;;;17.50;60.70;;;;;;10484434;28;20111;-60
2021/05/02 19:22:35;;;;;;;9.55;1.65;;;17.50;60.80;;;;;;10497908;28;20028;-60
2021/05/02 19:27:35;;;;;;;8.77;2.22;;;17.50;61.00;;;;;;10500986;28;20043;-59
2021/05/02 19:32:38;;;;;;;10.10;1.60;;;17.50;61.40;;;;;;10501542;28;20024;-58
2021/05/02 19:37:38;;;;;;;8.40;1.95;;;17.50;61.70;;;;;;10473526;28;20481;-57
2021/05/02 19:42:40;;;;;;;11.23;1.70;;;17.40;61.70;;;;;;10501800;28;20082;-57
2021/05/02 19:47:41;;;;;;;13.40;2.42;;;17.50;61.60;;;;;;10501760;28;20122;-57
2021/05/02 19:52:43;;;;;;;8.13;2.10;;;17.50;61.50;;;;;;10481673;28;20121;-57
2021/05/02 19:57:44;;;;;;;7.78;1.90;;;17.40;61.30;;;;;;10469984;28;20120;-57
2021/05/02 20:02:45;;;;;;;6.30;1.63;;;17.40;61.10;;;;;;10500869;28;20028;-57
2021/05/02 20:07:45;;;;;;;6.28;1.60;;;17.40;61.00;;;;;;10501212;28;20025;-57
2021/05/02 20:12:47;;;;;;;5.30;1.60;;;17.40;60.90;;;;;;10501226;28;20025;-57
2021/05/02 20:17:48;;;;;;;10.00;2.38;;;17.50;60.90;;;;;;10500962;28;20035;-57
2021/05/02 20:22:49;;;;;;;4.18;1.27;;;17.50;60.70;;;;;;10500961;28;20385;-57
2021/05/02 20:27:50;;;;;;;4.82;1.50;;;17.50;60.60;;;;;;10514862;28;20077;-57
2021/05/02 20:32:54;;;;;;;8.55;2.47;;;17.50;60.50;;;;;;10513815;28;20029;-58
2021/05/02 20:37:55;;;;;;;9.65;1.88;;;17.50;60.50;;;;;;10497579;28;20060;-58
2021/05/02 20:42:57;;;;;;;4.72;1.65;;;17.50;60.40;;;;;;10513810;28;20107;-57
2021/05/02 20:47:58;;;;;;;4.53;1.50;;;17.50;60.30;;;;;;10499138;28;20044;-57
2021/05/02 20:53:00;;;;;;;5.22;1.30;;;17.50;60.80;;;;;;10510429;28;20456;-57
2021/05/02 20:58:01;;;;;;;5.53;1.40;;;17.60;60.20;;;;;;10502068;28;20085;-57
2021/05/02 21:03:02;;;;;;;5.20;1.45;;;17.50;60.10;;;;;;10498877;28;20107;-57
2021/05/02 21:08:03;;;;;;;6.90;1.50;;;17.60;60.10;;;;;;10498197;28;20032;-57
2021/05/02 21:13:05;;;;;;;4.18;0.95;;;17.50;59.90;;;;;;10480854;28;20066;-57
2021/05/02 21:18:06;;;;;;;4.57;1.23;;;17.50;59.80;;;;;;10498634;28;20116;-57
2021/05/02 21:23:06;;;;;;;3.63;1.67;;;17.60;59.80;;;;;;10498676;28;20441;-57
2021/05/02 21:28:07;;;;;;;4.10;1.42;;;17.50;59.80;;;;;;10480321;28;20547;-57
2021/05/02 21:33:08;;;;;;;2.83;0.90;;;17.50;59.70;;;;;;10498273;28;20540;-57
2021/05/02 21:38:08;;;;;;;5.57;1.33;;;17.50;59.60;;;;;;10497939;28;20067;-58
2021/05/02 21:43:09;;;;;;;4.28;1.52;;;17.60;59.70;;;;;;10497981;28;20029;-57
2021/05/02 21:48:10;;;;;;;2.05;1.00;;;17.60;59.50;;;;;;10479051;28;20043;-57
2021/05/02 21:53:13;;;;;;;3.70;0.98;;;17.60;59.50;;;;;;10497463;28;20064;-57
2021/05/02 21:58:13;;;;;;;3.28;1.20;;;17.60;59.40;;;;;;10497280;28;20081;-61
2021/05/02 22:03:14;;;;;;;1.95;1.02;;;17.60;59.40;;;;;;10496944;28;20369;-61
2021/05/02 22:08:15;;;;;;;1.90;0.80;;;17.60;59.30;;;;;;10479161;28;20021;-61
2021/05/02 22:13:16;;;;;;;3.40;1.15;;;17.60;59.30;;;;;;10458053;28;20024;-61
2021/05/02 22:18:24;;;;;;;3.25;1.15;;;17.60;59.10;;;;;;10479096;28;20024;-61
2021/05/02 22:23:27;;;;;;;2.78;0.85;;;17.60;59.10;;;;;;10479644;28;20488;-61
2021/05/02 22:28:28;;;;;;;1.45;0.88;;;17.60;59.00;;;;;;10476276;28;20036;-61
2021/05/02 22:33:29;;;;;;;2.35;1.13;;;17.60;59.00;;;;;;10496683;28;20032;-61
2021/05/02 22:38:30;;;;;;;3.47;0.65;;;17.60;58.90;;;;;;10496354;28;20033;-61
2021/05/02 22:43:31;;;;;;;4.82;1.10;;;17.60;58.80;;;;;;10496331;28;20060;-62
2021/05/02 22:48:33;;;;;;;2.42;0.93;;;17.60;58.80;;;;;;10495936;28;20083;-62
2021/05/02 22:53:34;;;;;;;2.95;0.80;;;17.60;58.80;;;;;;10496274;28;20032;-61
2021/05/02 22:58:36;;;;;;;1.38;0.60;;;17.60;58.80;;;;;;10496095;28;20033;-61
2021/05/02 23:03:37;;;;;;;2.03;1.10;;;17.60;58.70;;;;;;10495965;28;20036;-61
2021/05/02 23:08:39;;;;;;;1.40;0.70;;;17.60;58.70;;;;;;10495251;28;20047;-60
2021/05/02 23:13:41;;;;;;;1.00;0.50;;;17.60;58.60;;;;;;10495723;28;20029;-61
2021/05/02 23:18:42;;;;;;;1.52;0.60;;;17.60;58.60;;;;;;10495702;28;20065;-61
2021/05/02 23:23:43;;;;;;;1.40;0.73;;;17.60;58.50;;;;;;10495480;28;20366;-61
2021/05/02 23:28:43;;;;;;;1.60;0.77;;;17.70;58.40;;;;;;10495646;28;20036;-61
2021/05/02 23:33:44;;;;;;;1.88;1.20;;;17.70;58.40;;;;;;10501895;28;20028;-60
2021/05/02 23:38:45;;;;;;;1.65;0.73;;;17.60;58.30;;;;;;10484644;28;20032;-60
2021/05/02 23:43:45;;;;;;;1.05;0.70;;;17.60;58.30;;;;;;10484113;28;20467;-60
2021/05/02 23:48:46;;;;;;;1.73;0.88;;;17.60;58.30;;;;;;10502111;28;20416;-61
2021/05/02 23:53:47;;;;;;;2.40;0.80;;;17.60;58.30;;;;;;10483893;28;20434;-61
2021/05/02 23:58:48;;;;;;;1.35;0.80;;;17.60;58.20;;;;;;10501908;28;20033;-62
